createdAt,value
2019-03-18T00:00:35.637Z,2.12
2019-03-18T00:02:56.447Z,1.90
2019-03-18T00:05:17.127Z,1.57
2019-03-18T00:07:37.841Z,1.87
2019-03-18T00:09:58.410Z,1.30
2019-03-18T00:12:18.511Z,1.20
2019-03-18T00:14:39.163Z,1.55
2019-03-18T00:16:59.884Z,0.88
2019-03-18T00:19:20.567Z,0.93
2019-03-18T00:21:41.184Z,1.00
2019-03-18T00:24:01.734Z,0.80
2019-03-18T00:26:22.397Z,0.80
2019-03-18T00:28:42.852Z,0.90
2019-03-18T00:31:03.511Z,0.80
2019-03-18T00:33:24.121Z,0.88
2019-03-18T00:35:44.760Z,0.40
2019-03-18T00:38:05.396Z,0.72
2019-03-18T00:40:25.916Z,0.40
2019-03-18T00:42:46.505Z,0.98
2019-03-18T00:45:14.630Z,0.68
2019-03-18T00:47:29.865Z,0.53
2019-03-18T00:49:50.423Z,0.57
2019-03-18T00:52:10.951Z,0.40
2019-03-18T00:54:31.546Z,0.40
2019-03-18T00:56:52.302Z,0.50
2019-03-18T00:59:13.008Z,0.35
2019-03-18T01:01:33.783Z,0.25
2019-03-18T01:03:55.497Z,0.25
2019-03-18T01:06:17.607Z,0.30
2019-03-18T01:08:38.904Z,0.10
2019-03-18T01:10:59.363Z,0.20
2019-03-18T01:13:19.902Z,0.20
2019-03-18T01:15:40.370Z,0.30
2019-03-18T01:18:00.992Z,0.23
2019-03-18T01:20:21.521Z,0.10
2019-03-18T01:22:42.295Z,0.20
2019-03-18T01:25:02.971Z,0.20
2019-03-18T01:27:25.462Z,0.10
2019-03-18T01:29:45.919Z,0.35
2019-03-18T01:32:06.468Z,0.10
2019-03-18T01:34:27.077Z,0.23
2019-03-18T01:36:47.605Z,0.10
2019-03-18T01:39:08.348Z,0.20
2019-03-18T01:41:29.216Z,0.03
2019-03-18T01:43:49.931Z,0.10
2019-03-18T01:46:10.606Z,0.05
2019-03-18T01:48:32.263Z,0.20
2019-03-18T01:50:52.965Z,0.28
2019-03-18T01:53:13.514Z,0.20
2019-03-18T01:55:34.022Z,0.10
2019-03-18T01:57:54.494Z,0.10
2019-03-18T02:00:15.869Z,0.10
2019-03-18T02:02:36.488Z,0.10
2019-03-18T02:04:57.077Z,0.00
2019-03-18T02:07:17.622Z,0.00
2019-03-18T02:09:38.149Z,0.10
2019-03-18T02:11:58.701Z,0.10
2019-03-18T02:14:19.260Z,0.20
2019-03-18T02:16:39.880Z,0.30
2019-03-18T02:19:00.419Z,0.20
2019-03-18T02:21:20.924Z,0.20
2019-03-18T02:23:41.560Z,0.13
2019-03-18T02:26:02.054Z,0.10
2019-03-18T02:28:22.639Z,0.10
2019-03-18T02:30:43.239Z,0.17
2019-03-18T02:33:03.871Z,0.35
2019-03-18T02:35:24.560Z,0.20
2019-03-18T02:37:45.107Z,0.10
2019-03-18T02:40:08.561Z,0.10
2019-03-18T02:42:29.063Z,0.13
2019-03-18T02:44:49.690Z,0.20
2019-03-18T02:47:10.396Z,0.20
2019-03-18T02:49:30.902Z,0.10
2019-03-18T02:51:52.969Z,0.10
2019-03-18T02:54:13.351Z,0.10
2019-03-18T02:56:33.895Z,0.17
2019-03-18T02:58:54.645Z,0.20
2019-03-18T03:01:15.599Z,0.20
2019-03-18T03:03:37.157Z,0.28
2019-03-18T03:05:58.059Z,0.20
2019-03-18T03:08:18.596Z,0.42
2019-03-18T03:10:39.205Z,0.10
2019-03-18T03:12:59.785Z,0.10
2019-03-18T03:15:20.365Z,0.20
2019-03-18T03:17:40.907Z,0.10
2019-03-18T03:20:01.420Z,0.23
2019-03-18T03:22:21.988Z,0.20
2019-03-18T03:24:43.553Z,0.10
2019-03-18T03:27:04.199Z,0.10
2019-03-18T03:29:24.806Z,0.10
2019-03-18T03:31:45.359Z,0.00
2019-03-18T03:34:12.578Z,0.20
2019-03-18T03:36:27.643Z,0.13
2019-03-18T03:38:48.163Z,0.30
2019-03-18T03:41:08.900Z,0.10
2019-03-18T03:43:29.534Z,0.30
2019-03-18T03:45:50.110Z,0.23
2019-03-18T03:48:10.663Z,0.30
2019-03-18T03:50:31.247Z,0.30
2019-03-18T03:52:51.894Z,0.30
2019-03-18T03:55:13.339Z,0.20
2019-03-18T03:57:33.849Z,0.10
2019-03-18T03:59:56.234Z,0.13
2019-03-18T04:02:17.724Z,0.17
2019-03-18T04:04:38.339Z,0.10
2019-03-18T04:06:58.924Z,0.47
2019-03-18T04:09:19.692Z,0.28
2019-03-18T04:11:40.210Z,0.20
2019-03-18T04:14:00.739Z,0.20
2019-03-18T04:16:21.171Z,0.28
2019-03-18T04:18:42.214Z,0.13
2019-03-18T04:21:02.899Z,0.20
2019-03-18T04:23:25.154Z,0.10
2019-03-18T04:25:45.643Z,0.35
2019-03-18T04:28:08.861Z,0.15
2019-03-18T04:30:28.908Z,0.10
2019-03-18T04:32:49.496Z,0.10
2019-03-18T04:35:10.387Z,0.30
2019-03-18T04:37:30.897Z,0.10
2019-03-18T04:39:51.423Z,0.10
2019-03-18T04:42:12.016Z,0.20
2019-03-18T04:44:32.501Z,0.10
2019-03-18T04:46:52.965Z,0.10
2019-03-18T04:49:14.436Z,0.30
2019-03-18T04:51:35.026Z,0.40
2019-03-18T04:53:55.553Z,0.17
2019-03-18T04:59:04.006Z,0.37
2019-03-18T05:01:24.524Z,0.20
2019-03-18T05:03:45.046Z,0.40
2019-03-18T05:06:05.583Z,0.20
2019-03-18T05:08:26.092Z,0.30
2019-03-18T05:10:46.608Z,0.40
2019-03-18T05:13:07.216Z,0.30
2019-03-18T05:15:27.734Z,0.40
2019-03-18T05:17:48.282Z,0.20
2019-03-18T05:20:10.381Z,0.30
2019-03-18T05:22:31.450Z,0.40
2019-03-18T05:24:52.036Z,0.30
2019-03-18T05:27:12.590Z,0.10
2019-03-18T05:29:33.112Z,0.40
2019-03-18T05:31:53.652Z,0.20
2019-03-18T05:34:14.197Z,0.40
2019-03-18T05:36:34.743Z,0.45
2019-03-18T05:38:55.381Z,0.40
2019-03-18T05:41:16.034Z,0.47
2019-03-18T05:43:37.459Z,0.20
2019-03-18T05:45:57.896Z,0.30
2019-03-18T05:48:26.481Z,0.37
2019-03-18T05:50:47.014Z,0.25
2019-03-18T05:53:07.549Z,0.42
2019-03-18T05:55:27.988Z,0.37
2019-03-18T05:57:48.549Z,0.30
2019-03-18T06:00:13.503Z,0.20
2019-03-18T06:02:33.942Z,0.30
2019-03-18T06:04:54.484Z,0.30
2019-03-18T06:07:14.930Z,0.50
2019-03-18T06:09:35.357Z,0.33
2019-03-18T06:11:55.904Z,0.50
2019-03-18T06:14:16.737Z,0.40
2019-03-18T06:16:37.361Z,0.40
2019-03-18T06:19:00.146Z,0.40
2019-03-18T06:21:20.146Z,0.40
2019-03-18T06:23:40.643Z,0.37
2019-03-18T06:26:01.223Z,0.30
2019-03-18T06:28:21.727Z,0.50
2019-03-18T06:30:42.254Z,0.40
2019-03-18T06:33:02.680Z,0.30
2019-03-18T06:35:23.261Z,0.20
2019-03-18T06:37:46.028Z,0.20
2019-03-18T06:40:11.085Z,0.23
2019-03-18T06:42:31.606Z,0.40
2019-03-18T06:44:52.327Z,0.33
2019-03-18T06:47:12.932Z,0.17
2019-03-18T06:49:33.495Z,0.30
2019-03-18T06:51:54.048Z,0.30
2019-03-18T06:54:14.513Z,0.40
2019-03-18T06:56:34.974Z,0.35
2019-03-18T06:58:55.693Z,0.40
2019-03-18T07:01:17.462Z,0.30
2019-03-18T07:03:38.085Z,0.30
2019-03-18T07:05:58.600Z,0.20
2019-03-18T07:08:19.214Z,0.23
2019-03-18T07:10:40.002Z,0.17
2019-03-18T07:13:00.671Z,0.25
2019-03-18T07:15:21.290Z,0.50
2019-03-18T07:17:41.786Z,0.20
2019-03-18T07:20:02.576Z,0.40
2019-03-18T07:22:23.175Z,0.37
2019-03-18T07:24:43.647Z,0.25
2019-03-18T07:27:05.395Z,0.33
2019-03-18T07:29:25.891Z,0.60
2019-03-18T07:31:46.362Z,0.55
2019-03-18T07:34:06.911Z,0.40
2019-03-18T07:36:27.404Z,0.40
2019-03-18T07:38:49.413Z,0.50
2019-03-18T07:41:09.924Z,0.40
2019-03-18T07:43:30.394Z,0.70
2019-03-18T07:45:51.147Z,0.55
2019-03-18T07:48:12.644Z,0.37
2019-03-18T07:50:34.524Z,0.40
2019-03-18T07:52:58.139Z,0.45
2019-03-18T07:55:18.865Z,0.50
2019-03-18T07:57:39.441Z,0.33
2019-03-18T08:00:00.293Z,0.35
2019-03-18T08:02:20.955Z,0.40
2019-03-18T08:04:41.460Z,0.57
2019-03-18T08:07:01.986Z,0.47
2019-03-18T08:09:22.423Z,0.50
2019-03-18T08:11:42.985Z,0.57
2019-03-18T08:14:03.447Z,1.05
2019-03-18T08:16:24.015Z,0.72
2019-03-18T08:18:44.580Z,0.47
2019-03-18T08:21:05.270Z,0.70
2019-03-18T08:23:25.785Z,0.45
2019-03-18T08:25:46.325Z,0.60
2019-03-18T08:28:06.829Z,0.50
2019-03-18T08:30:27.450Z,0.30
2019-03-18T08:32:48.122Z,0.68
2019-03-18T08:35:08.803Z,0.40
2019-03-18T08:37:39.639Z,0.80
2019-03-18T08:40:00.357Z,0.88
2019-03-18T08:42:20.981Z,0.72
2019-03-18T08:44:47.545Z,0.60
2019-03-18T08:47:08.115Z,0.50
2019-03-18T08:49:28.644Z,0.60
2019-03-18T08:51:49.088Z,0.70
2019-03-18T08:54:09.584Z,0.50
2019-03-18T08:56:30.051Z,0.60
2019-03-18T08:58:50.647Z,0.55
2019-03-18T09:01:11.225Z,0.68
2019-03-18T09:03:31.737Z,0.50
2019-03-18T09:05:52.353Z,0.40
2019-03-18T09:08:13.761Z,0.60
2019-03-18T09:10:34.350Z,0.47
2019-03-18T09:12:54.941Z,0.50
2019-03-18T09:15:15.636Z,0.42
2019-03-18T09:17:37.208Z,0.50
2019-03-18T09:19:57.714Z,0.60
2019-03-18T09:22:18.560Z,0.40
2019-03-18T09:24:39.082Z,0.50
2019-03-18T09:27:02.610Z,0.50
2019-03-18T09:29:21.832Z,0.33
2019-03-18T09:31:42.421Z,0.60
2019-03-18T09:34:04.161Z,0.50
2019-03-18T09:36:24.777Z,0.50
2019-03-18T09:38:45.269Z,0.45
2019-03-18T09:41:05.937Z,0.78
2019-03-18T09:43:26.525Z,0.60
2019-03-18T09:45:46.985Z,0.70
2019-03-18T09:48:07.604Z,0.70
2019-03-18T09:50:28.229Z,0.50
2019-03-18T09:52:49.166Z,0.50
2019-03-18T09:55:11.848Z,0.55
2019-03-18T09:57:32.069Z,0.42
2019-03-18T09:59:54.122Z,0.70
2019-03-18T10:02:14.676Z,0.95
2019-03-18T10:04:35.383Z,1.30
2019-03-18T10:06:56.991Z,0.80
2019-03-18T10:09:18.229Z,1.15
2019-03-18T10:11:38.920Z,1.00
2019-03-18T10:14:02.940Z,1.30
2019-03-18T10:16:23.094Z,1.62
2019-03-18T10:18:45.145Z,1.45
2019-03-18T10:21:05.812Z,1.52
2019-03-18T10:23:26.324Z,1.50
2019-03-18T10:25:46.825Z,1.40
2019-03-18T10:28:07.439Z,1.32
2019-03-18T10:30:28.029Z,1.20
2019-03-18T10:32:48.541Z,1.40
2019-03-18T10:35:09.831Z,1.72
2019-03-18T10:37:30.378Z,1.90
2019-03-18T10:39:50.892Z,1.82
2019-03-18T10:42:11.429Z,2.05
2019-03-18T10:44:31.957Z,1.80
2019-03-18T10:46:54.372Z,1.87
2019-03-18T10:49:14.697Z,1.12
2019-03-18T10:51:35.144Z,2.33
2019-03-18T10:53:55.688Z,1.75
2019-03-18T10:56:16.291Z,1.85
2019-03-18T10:58:36.738Z,1.77
2019-03-18T11:00:57.345Z,1.70
2019-03-18T11:03:17.950Z,1.52
2019-03-18T11:05:38.580Z,1.70
2019-03-18T11:07:59.113Z,1.55
2019-03-18T11:10:19.921Z,1.57
2019-03-18T11:12:40.496Z,2.00
2019-03-18T11:15:01.023Z,1.90
2019-03-18T11:17:21.618Z,1.45
2019-03-18T11:19:42.219Z,1.82
2019-03-18T11:22:02.819Z,2.00
2019-03-18T11:24:23.434Z,1.57
2019-03-18T11:26:44.056Z,1.62
2019-03-18T11:29:05.793Z,1.95
2019-03-18T11:31:26.586Z,1.62
2019-03-18T11:33:47.176Z,2.00
2019-03-18T11:36:07.694Z,1.67
2019-03-18T11:38:28.294Z,1.67
2019-03-18T11:40:48.859Z,1.40
2019-03-18T11:43:09.419Z,1.55
2019-03-18T11:45:31.596Z,1.40
2019-03-18T11:47:52.222Z,1.30
2019-03-18T11:50:17.563Z,1.35
2019-03-18T11:52:38.014Z,1.40
2019-03-18T11:54:58.576Z,1.50
2019-03-18T11:57:19.279Z,1.47
2019-03-18T11:59:40.006Z,1.47
2019-03-18T12:02:00.687Z,1.37
2019-03-18T12:04:21.336Z,1.27
2019-03-18T12:06:41.772Z,1.60
2019-03-18T12:09:02.482Z,1.60
2019-03-18T12:11:23.097Z,1.72
2019-03-18T12:13:43.754Z,1.80
2019-03-18T12:16:05.371Z,2.42
2019-03-18T12:18:26.952Z,1.77
2019-03-18T12:20:47.472Z,1.30
2019-03-18T12:23:08.236Z,1.60
2019-03-18T12:25:29.629Z,1.60
2019-03-18T12:27:50.190Z,1.52
2019-03-18T12:30:18.344Z,2.00
2019-03-18T12:32:39.072Z,1.70
2019-03-18T12:34:59.645Z,1.30
2019-03-18T12:37:20.233Z,1.30
2019-03-18T12:39:40.785Z,1.50
2019-03-18T12:42:01.412Z,1.87
2019-03-18T12:44:22.039Z,1.40
2019-03-18T12:46:47.428Z,1.70
2019-03-18T12:49:08.037Z,1.40
2019-03-18T12:51:28.536Z,1.70
2019-03-18T12:53:49.001Z,1.40
2019-03-18T12:56:09.705Z,1.40
2019-03-18T12:58:30.550Z,1.40
2019-03-18T13:00:51.133Z,1.42
2019-03-18T13:03:11.878Z,2.17
2019-03-18T13:05:32.639Z,1.65
2019-03-18T13:07:54.197Z,1.50
2019-03-18T13:10:16.566Z,1.85
2019-03-18T13:12:36.541Z,1.33
2019-03-18T13:14:57.059Z,1.60
2019-03-18T13:17:17.586Z,1.67
2019-03-18T13:19:38.098Z,2.00
2019-03-18T13:21:58.730Z,1.77
2019-03-18T13:24:19.321Z,1.80
2019-03-18T13:26:39.851Z,1.40
2019-03-18T13:29:00.406Z,1.50
2019-03-18T13:31:20.912Z,2.02
2019-03-18T13:33:41.859Z,1.77
2019-03-18T13:36:02.510Z,1.60
2019-03-18T13:38:23.117Z,1.67
2019-03-18T13:40:45.882Z,1.75
2019-03-18T13:43:05.829Z,1.90
2019-03-18T13:45:26.635Z,2.00
2019-03-18T13:47:47.213Z,1.82
2019-03-18T13:50:18.647Z,1.77
2019-03-18T13:52:39.250Z,1.70
2019-03-18T13:54:59.996Z,1.77
2019-03-18T13:57:20.666Z,2.17
2019-03-18T13:59:41.180Z,2.05
2019-03-18T14:02:01.813Z,2.15
2019-03-18T14:04:22.488Z,2.10
2019-03-18T14:06:43.193Z,2.12
2019-03-18T14:09:05.419Z,2.35
2019-03-18T14:11:26.024Z,2.35
2019-03-18T14:13:47.574Z,2.30
2019-03-18T14:16:08.026Z,1.95
2019-03-18T14:18:28.578Z,2.05
2019-03-18T14:20:49.140Z,2.12
2019-03-18T14:23:09.816Z,2.20
2019-03-18T14:25:30.509Z,1.87
2019-03-18T14:27:51.107Z,2.33
2019-03-18T14:30:16.554Z,2.40
2019-03-18T14:32:37.000Z,2.90
2019-03-18T14:34:57.627Z,2.62
2019-03-18T14:37:18.306Z,2.27
2019-03-18T14:39:38.967Z,2.25
2019-03-18T14:41:59.418Z,2.33
2019-03-18T14:44:20.079Z,2.12
2019-03-18T14:46:40.656Z,2.52
2019-03-18T14:49:01.265Z,2.42
2019-03-18T14:51:25.639Z,2.17
2019-03-18T14:56:05.760Z,2.20
2019-03-18T14:58:26.403Z,2.20
2019-03-18T15:00:46.868Z,2.00
2019-03-18T15:03:07.435Z,2.40
2019-03-18T15:05:28.118Z,2.37
2019-03-18T15:07:48.722Z,2.58
2019-03-18T15:10:14.701Z,1.92
2019-03-18T15:12:35.229Z,1.95
2019-03-18T15:14:56.217Z,2.00
2019-03-18T15:17:16.722Z,2.45
2019-03-18T15:19:37.359Z,1.87
2019-03-18T15:21:58.836Z,2.15
2019-03-18T15:24:19.718Z,2.75
2019-03-18T15:26:40.299Z,2.33
2019-03-18T15:29:00.840Z,2.40
2019-03-18T15:31:21.430Z,2.15
2019-03-18T15:33:42.200Z,2.52
2019-03-18T15:36:03.185Z,2.42
2019-03-18T15:38:24.903Z,2.22
2019-03-18T15:40:45.454Z,2.42
2019-03-18T15:43:05.945Z,2.42
2019-03-18T15:45:26.564Z,2.47
2019-03-18T15:47:47.193Z,2.42
2019-03-18T15:50:13.046Z,2.58
2019-03-18T15:52:33.023Z,2.75
2019-03-18T15:54:54.271Z,2.55
2019-03-18T15:57:14.980Z,2.42
2019-03-18T15:59:35.616Z,2.50
2019-03-18T16:01:56.243Z,2.22
2019-03-18T16:04:16.762Z,2.52
2019-03-18T16:06:37.397Z,3.15
2019-03-18T16:08:58.235Z,2.80
2019-03-18T16:11:18.885Z,2.40
2019-03-18T16:13:42.478Z,2.80
2019-03-18T16:16:03.093Z,2.72
2019-03-18T16:18:23.691Z,2.55
2019-03-18T16:20:44.228Z,2.90
2019-03-18T16:23:04.743Z,2.70
2019-03-18T16:25:26.443Z,2.72
2019-03-18T16:27:47.083Z,2.45
2019-03-18T16:30:11.158Z,2.47
2019-03-18T16:32:31.762Z,2.60
2019-03-18T16:34:52.372Z,2.60
2019-03-18T16:37:12.916Z,2.80
2019-03-18T16:39:33.459Z,3.15
2019-03-18T16:41:54.403Z,2.45
2019-03-18T16:44:15.128Z,2.87
2019-03-18T16:46:35.687Z,2.90
2019-03-18T16:48:56.382Z,2.77
2019-03-18T16:51:17.001Z,2.45
2019-03-18T16:53:37.552Z,2.65
2019-03-18T16:55:58.260Z,3.12
2019-03-18T16:58:18.762Z,3.20
2019-03-18T17:00:39.408Z,3.00
2019-03-18T17:03:00.126Z,2.92
2019-03-18T17:05:20.816Z,3.00
2019-03-18T17:07:41.765Z,2.20
2019-03-18T17:10:02.456Z,2.08
2019-03-18T17:12:24.183Z,2.60
2019-03-18T17:14:44.677Z,2.50
2019-03-18T17:17:07.563Z,2.72
2019-03-18T17:19:27.948Z,2.27
2019-03-18T17:21:48.578Z,2.67
2019-03-18T17:24:09.289Z,3.42
2019-03-18T17:26:29.923Z,2.67
2019-03-18T17:28:50.541Z,2.25
2019-03-18T17:31:11.083Z,2.35
2019-03-18T17:33:31.608Z,2.40
2019-03-18T17:35:52.356Z,3.40
2019-03-18T17:38:13.056Z,3.40
2019-03-18T17:40:33.740Z,2.98
2019-03-18T17:42:54.368Z,2.72
2019-03-18T17:45:20.268Z,3.47
2019-03-18T17:47:40.849Z,3.47
2019-03-18T17:50:01.493Z,3.40
2019-03-18T17:52:22.287Z,4.00
2019-03-18T17:54:44.749Z,3.58
2019-03-18T17:57:07.581Z,2.17
2019-03-18T17:59:27.277Z,2.85
2019-03-18T18:01:47.815Z,3.62
2019-03-18T18:04:08.715Z,3.52
2019-03-18T18:06:29.227Z,3.52
2019-03-18T18:08:49.899Z,3.35
2019-03-18T18:11:22.825Z,3.50
2019-03-18T18:13:43.037Z,3.20
2019-03-18T18:16:03.854Z,3.70
2019-03-18T18:18:24.474Z,4.20
2019-03-18T18:20:44.998Z,4.20
2019-03-18T18:23:14.092Z,4.00
2019-03-18T18:25:28.817Z,4.07
2019-03-18T18:27:49.326Z,4.67
2019-03-18T18:30:12.499Z,4.53
2019-03-18T18:34:51.890Z,4.35
2019-03-18T18:37:12.576Z,5.20
2019-03-18T18:39:33.267Z,5.70
2019-03-18T18:41:54.902Z,5.27
2019-03-18T18:44:15.407Z,5.15
2019-03-18T18:46:35.898Z,5.87
2019-03-18T18:48:56.430Z,5.85
2019-03-18T18:51:17.237Z,5.97
2019-03-18T18:53:38.093Z,6.70
2019-03-18T18:55:58.674Z,6.83
2019-03-18T18:58:19.181Z,7.28
2019-03-18T19:00:39.680Z,7.37
2019-03-18T19:03:00.528Z,6.80
2019-03-18T19:05:21.461Z,7.15
2019-03-18T19:07:42.462Z,8.33
2019-03-18T19:10:03.447Z,7.78
2019-03-18T19:12:24.168Z,8.05
2019-03-18T19:14:46.137Z,8.03
2019-03-18T19:17:06.632Z,7.90
2019-03-18T19:19:32.127Z,7.35
2019-03-18T19:21:52.194Z,7.90
2019-03-18T19:24:12.714Z,7.75
2019-03-18T19:26:33.204Z,8.48
2019-03-18T19:28:53.794Z,9.30
2019-03-18T19:31:14.405Z,10.65
2019-03-18T19:33:34.983Z,11.30
2019-03-18T19:35:55.551Z,11.33
2019-03-18T19:38:16.274Z,12.00
2019-03-18T19:40:36.878Z,10.08
2019-03-18T19:42:57.558Z,9.78
2019-03-18T19:45:18.307Z,8.95
2019-03-18T19:47:39.083Z,9.83
2019-03-18T19:50:08.853Z,8.63
2019-03-18T19:52:29.384Z,8.30
2019-03-18T19:54:50.029Z,8.58
2019-03-18T19:57:12.286Z,8.68
2019-03-18T19:59:32.413Z,8.43
2019-03-18T20:01:53.097Z,8.38
2019-03-18T20:04:14.156Z,8.28
2019-03-18T20:06:35.298Z,8.45
2019-03-18T20:08:55.920Z,8.83
2019-03-18T20:11:16.560Z,8.55
2019-03-18T20:13:37.100Z,9.03
2019-03-18T20:15:57.637Z,8.55
2019-03-18T20:18:18.196Z,8.48
2019-03-18T20:20:38.840Z,8.93
2019-03-18T20:22:59.499Z,10.20
2019-03-18T20:25:20.172Z,9.45
2019-03-18T20:27:40.969Z,10.05
2019-03-18T20:30:04.313Z,9.28
2019-03-18T20:32:23.665Z,7.10
2019-03-18T20:34:44.307Z,9.55
2019-03-18T20:37:05.025Z,9.68
2019-03-18T20:39:25.577Z,8.88
2019-03-18T20:41:46.095Z,9.53
2019-03-18T20:44:06.679Z,9.88
2019-03-18T20:46:27.322Z,10.43
2019-03-18T20:48:47.989Z,9.78
2019-03-18T20:51:08.634Z,9.98
2019-03-18T20:53:31.346Z,9.78
2019-03-18T20:55:52.051Z,10.63
2019-03-18T20:58:12.522Z,9.60
2019-03-18T21:00:33.142Z,9.08
2019-03-18T21:02:53.831Z,9.00
2019-03-18T21:05:14.726Z,8.70
2019-03-18T21:07:35.319Z,8.65
2019-03-18T21:09:55.867Z,10.53
2019-03-18T21:12:16.425Z,10.05
2019-03-18T21:14:36.972Z,10.65
2019-03-18T21:16:57.536Z,10.08
2019-03-18T21:19:18.200Z,9.63
2019-03-18T21:21:38.781Z,8.90
2019-03-18T21:23:59.356Z,8.43
2019-03-18T21:26:19.917Z,7.85
2019-03-18T21:28:41.594Z,6.90
2019-03-18T21:31:02.449Z,7.30
2019-03-18T21:33:23.959Z,7.22
2019-03-18T21:35:44.452Z,7.20
2019-03-18T21:38:05.086Z,6.78
2019-03-18T21:40:25.672Z,7.80
2019-03-18T21:42:46.278Z,7.70
2019-03-18T21:45:15.600Z,7.70
2019-03-18T21:47:36.161Z,7.75
2019-03-18T21:49:56.704Z,7.30
2019-03-18T21:52:17.173Z,8.43
2019-03-18T21:54:37.720Z,8.88
2019-03-18T21:57:06.491Z,8.63
2019-03-18T21:59:27.006Z,8.63
2019-03-18T22:01:47.663Z,8.35
2019-03-18T22:04:08.395Z,8.58
2019-03-18T22:06:28.988Z,8.58
2019-03-18T22:08:49.617Z,8.80
2019-03-18T22:11:10.143Z,8.78
2019-03-18T22:13:30.665Z,8.33
2019-03-18T22:15:51.417Z,8.50
2019-03-18T22:18:13.003Z,8.53
2019-03-18T22:20:33.693Z,8.38
2019-03-18T22:22:54.242Z,7.97
2019-03-18T22:25:16.505Z,7.85
2019-03-18T22:27:36.487Z,8.73
2019-03-18T22:29:57.462Z,8.10
2019-03-18T22:32:17.920Z,8.70
2019-03-18T22:34:38.572Z,8.63
2019-03-18T22:36:59.268Z,8.58
2019-03-18T22:39:20.087Z,8.60
2019-03-18T22:41:40.718Z,8.68
2019-03-18T22:44:01.332Z,8.65
2019-03-18T22:46:21.967Z,8.48
2019-03-18T22:48:42.581Z,8.93
2019-03-18T22:51:03.150Z,9.35
2019-03-18T22:53:23.838Z,9.03
2019-03-18T22:55:44.453Z,9.43
2019-03-18T22:58:05.213Z,8.78
2019-03-18T23:00:36.630Z,9.40
2019-03-18T23:02:57.402Z,9.78
2019-03-18T23:05:18.248Z,8.20
2019-03-18T23:07:38.839Z,9.08
2019-03-18T23:09:59.323Z,8.83
2019-03-18T23:12:19.969Z,8.45
2019-03-18T23:14:40.596Z,8.53
2019-03-18T23:17:02.153Z,8.47
2019-03-18T23:19:22.750Z,8.13
2019-03-18T23:21:49.097Z,8.30
2019-03-18T23:24:09.593Z,7.97
2019-03-18T23:26:30.113Z,8.60
2019-03-18T23:28:50.747Z,8.15
2019-03-18T23:31:11.320Z,8.18
2019-03-18T23:33:31.995Z,7.17
2019-03-18T23:35:52.485Z,7.95
2019-03-18T23:38:13.119Z,8.25
2019-03-18T23:40:33.644Z,8.33
2019-03-18T23:42:54.086Z,8.23
2019-03-18T23:45:14.810Z,7.70
2019-03-18T23:47:35.585Z,8.35
2019-03-18T23:49:56.180Z,7.90
2019-03-18T23:52:16.893Z,9.38
2019-03-18T23:54:38.363Z,8.53
2019-03-18T23:56:58.983Z,8.75
2019-03-18T23:59:19.618Z,9.25
